IMK weather

Simikot Airport
Simikot, Karnali, Nepal

Public forecast

Using degrees Celsius for public forecast. Weather courtesy of forecast.io.

METAR (pilot weather report)

Closest report is Pantnagar Airport, 134.9 nm (249.8 km) WSW. Retrieved 2019/09/21 05:30 UTC (12 minutes ago):

VIPT 210530Z VRB02KT 5000 HZ FEW030 SCT100 31/23 Q1011

TAF (pilot weather forecast)

Forecast is more than 12 hours old.

Closest forecast is Pantnagar Airport, 134.9 nm (249.8 km) WSW. Retrieved 2016/07/10 06:00 UTC (3 years ago):

TAF VIPT 100500Z 1006/1015 24005KT 4000 HZ FEW040 SCT100 TEMPO 1010/1015 2000 -TSRA SCT030 FEW035CB BKN090